Time;durP1;ratioP1;P1;durP2;ratioP2;P2;SDS_P1;SDS_P2;PMS_P1;PMS_P2;Temp;Humidity;BMP_temperature;BMP_pressure;BME280_temperature;BME280_humidity;BME280_pressure;Samples;Min_cycle;Max_cycle;Signal;HPM_P1;HPM_P2
2022/01/29 00:02:10;;;;;;;221.40;123.80;;;;;;;9.06;100.00;98967.56;4752605;29;20058;-64
2022/01/29 00:04:59;;;;;;;215.88;125.50;;;;;;;9.14;100.00;98971.69;4764040;30;20087;-64
2022/01/29 00:07:42;;;;;;;209.07;124.80;;;;;;;9.09;100.00;98975.22;4763565;30;20134;-64
2022/01/29 00:10:24;;;;;;;219.32;125.60;;;;;;;8.87;100.00;98979.06;4781191;30;20059;-64
2022/01/29 00:13:13;;;;;;;217.18;124.93;;;;;;;8.78;100.00;98988.63;4781753;30;20488;-63
2022/01/29 00:16:02;;;;;;;224.60;127.78;;;;;;;8.72;100.00;98987.88;4777938;30;20392;-64
2022/01/29 00:18:44;;;;;;;219.27;124.20;;;;;;;8.71;100.00;98988.75;4765216;30;20400;-64
2022/01/29 00:21:33;;;;;;;210.48;122.70;;;;;;;8.63;100.00;98988.88;4770764;30;20435;-64
2022/01/29 00:24:15;;;;;;;211.80;123.95;;;;;;;8.65;100.00;98992.28;4766815;30;20074;-64
2022/01/29 00:27:08;;;;;;;211.52;125.93;;;;;;;8.74;100.00;98987.00;4778683;30;20052;-64
2022/01/29 00:29:49;;;;;;;221.00;130.23;;;;;;;8.87;100.00;98979.06;4772896;30;20055;-64
2022/01/29 00:32:38;;;;;;;224.20;129.25;;;;;;;8.81;100.00;98975.72;4762030;30;20083;-64
2022/01/29 00:35:21;;;;;;;219.80;130.30;;;;;;;8.88;100.00;98978.19;4764103;30;20099;-64
2022/01/29 00:38:10;;;;;;;223.18;128.75;;;;;;;8.97;100.00;98985.72;4780627;29;20067;-64
2022/01/29 00:40:52;;;;;;;237.90;129.57;;;;;;;9.00;100.00;98977.97;4777560;30;20493;-64
2022/01/29 00:43:40;;;;;;;221.77;130.45;;;;;;;8.96;100.00;98979.72;4762263;30;20071;-64
2022/01/29 00:46:22;;;;;;;228.80;131.98;;;;;;;8.94;100.00;98990.94;4776041;30;20069;-64
2022/01/29 00:49:19;;;;;;;232.20;127.80;;;;;;;8.94;100.00;98993.50;4778856;30;20052;-64
2022/01/29 00:51:54;;;;;;;224.38;129.15;;;;;;;8.97;100.00;98994.28;4763847;30;20070;-64
2022/01/29 00:54:49;;;;;;;241.63;131.52;;;;;;;8.85;100.00;98993.66;4761968;30;20047;-64
2022/01/29 00:57:28;;;;;;;235.23;129.65;;;;;;;8.67;100.00;98990.53;4761314;30;20135;-64
2022/01/29 01:00:17;;;;;;;210.35;128.57;;;;;;;8.88;100.00;98975.59;4763723;29;20059;-64
2022/01/29 01:03:06;;;;;;;228.00;131.88;;;;;;;8.89;100.00;98987.59;4779150;29;20401;-63
2022/01/29 01:06:00;;;;;;;239.95;136.50;;;;;;;8.71;100.00;98986.19;4772671;30;20051;-65
2022/01/29 01:08:36;;;;;;;217.75;130.68;;;;;;;8.66;100.00;98999.13;4778908;30;20078;-64
2022/01/29 01:11:32;;;;;;;;;;;;;;;8.58;100.00;99000.97;4755722;30;20055;-65
2022/01/29 01:14:08;;;;;;;228.07;130.90;;;;;;;8.54;100.00;99014.72;4759046;30;19948;-65
2022/01/29 01:17:03;;;;;;;245.90;136.43;;;;;;;8.60;100.00;99017.22;4776386;29;20112;-64
2022/01/29 01:19:38;;;;;;;245.60;135.00;;;;;;;8.56;100.00;99018.13;4778525;29;20142;-64
2022/01/29 01:22:35;;;;;;;237.82;134.70;;;;;;;8.64;100.00;99018.84;4757311;30;20060;-64
2022/01/29 01:25:11;;;;;;;242.70;134.25;;;;;;;8.74;100.00;99022.09;4768256;29;20488;-65
2022/01/29 01:28:06;;;;;;;254.83;139.30;;;;;;;8.72;100.00;99027.25;4774904;29;20059;-64
2022/01/29 01:30:42;;;;;;;243.65;138.27;;;;;;;8.70;100.00;99036.69;4761505;30;20085;-64
2022/01/29 01:33:37;;;;;;;261.70;141.83;;;;;;;8.59;100.00;99042.91;4774378;29;20543;-64
2022/01/29 01:36:14;;;;;;;250.00;136.70;;;;;;;8.56;100.00;99056.63;4760044;30;20338;-64
2022/01/29 01:39:11;;;;;;;253.17;146.83;;;;;;;8.55;100.00;99057.50;4770111;30;20061;-64
2022/01/29 01:42:03;;;;;;;260.45;144.82;;;;;;;8.56;100.00;99045.50;4779728;29;20063;-64
2022/01/29 01:44:53;;;;;;;260.33;143.25;;;;;;;8.53;100.00;99060.97;4781157;29;20047;-64
2022/01/29 01:47:35;;;;;;;262.20;145.23;;;;;;;8.49;100.00;99052.47;4779572;29;20417;-64
2022/01/29 01:50:24;;;;;;;268.77;150.02;;;;;;;8.42;100.00;99062.00;4768912;30;20059;-64
2022/01/29 01:53:07;;;;;;;270.38;147.68;;;;;;;8.41;100.00;99065.41;4781493;30;20066;-64
2022/01/29 01:55:56;;;;;;;263.52;142.95;;;;;;;8.68;100.00;99059.00;4781355;29;20056;-64
2022/01/29 01:58:39;;;;;;;266.00;147.43;;;;;;;8.60;100.00;99067.72;4783783;29;20054;-64
2022/01/29 02:01:34;;;;;;;261.75;145.98;;;;;;;8.50;100.00;99061.88;4780666;29;20063;-64
2022/01/29 02:04:09;;;;;;;257.30;144.70;;;;;;;8.57;100.00;99067.75;4778395;29;20058;-64
2022/01/29 02:07:07;;;;;;;262.25;146.25;;;;;;;8.59;100.00;99079.69;4780235;29;20058;-65
2022/01/29 02:09:43;;;;;;;255.18;142.45;;;;;;;8.72;100.00;99088.91;4780962;29;20055;-65
2022/01/29 02:12:38;;;;;;;275.83;144.57;;;;;;;8.59;100.00;99084.84;4780860;29;20059;-65
2022/01/29 02:15:15;;;;;;;259.70;141.63;;;;;;;8.81;100.00;99078.47;4767357;30;20051;-65
2022/01/29 02:18:15;;;;;;;258.27;144.88;;;;;;;8.86;100.00;99077.56;4782753;29;20083;-65
2022/01/29 02:20:51;;;;;;;256.20;142.68;;;;;;;8.76;100.00;99094.84;4781891;30;20063;-65
2022/01/29 02:23:47;;;;;;;259.98;146.60;;;;;;;8.63;100.00;99096.75;4775602;29;20052;-66
2022/01/29 02:26:25;;;;;;;254.98;145.50;;;;;;;8.65;100.00;99100.13;4763665;30;20055;-65
2022/01/29 02:29:20;;;;;;;271.48;148.30;;;;;;;8.94;100.00;99106.56;4778910;30;20061;-65
2022/01/29 02:31:57;;;;;;;279.13;146.93;;;;;;;8.85;100.00;99107.53;4764068;30;20561;-66
2022/01/29 02:34:53;;;;;;;259.10;146.98;;;;;;;9.04;100.00;99116.63;4774544;29;20058;-65
2022/01/29 02:37:28;;;;;;;270.60;150.35;;;;;;;8.92;100.00;99118.56;4775852;29;20055;-66
2022/01/29 02:40:22;;;;;;;283.17;152.38;;;;;;;9.15;100.00;99121.59;4775125;29;20051;-66
2022/01/29 02:43:34;;;;;;;301.63;150.43;;;;;;;9.27;100.00;99120.50;4780095;29;20230;-65
2022/01/29 02:46:31;;;;;;;284.25;149.48;;;;;;;9.39;100.00;99128.88;4775645;29;20174;-65
2022/01/29 02:49:13;;;;;;;292.67;152.38;;;;;;;9.26;100.00;99135.09;4779554;29;20584;-65
2022/01/29 02:52:04;;;;;;;290.35;153.52;;;;;;;9.29;100.00;99134.19;4779733;30;20086;-65
2022/01/29 02:54:46;;;;;;;281.27;150.18;;;;;;;9.55;100.00;99137.16;4780984;29;20581;-65
2022/01/29 02:57:36;;;;;;;282.75;155.95;;;;;;;9.74;100.00;99143.63;4781398;30;20064;-65
2022/01/29 03:00:25;;;;;;;272.50;149.23;;;;;;;9.63;100.00;99140.44;4781734;29;20255;-65
2022/01/29 03:03:22;;;;;;;283.35;153.13;;;;;;;9.70;100.00;99142.00;4780250;30;20152;-63
2022/01/29 03:05:57;;;;;;;286.65;157.40;;;;;;;9.78;100.00;99141.84;4781285;29;20124;-63
2022/01/29 03:08:53;;;;;;;293.20;162.37;;;;;;;9.92;100.00;99132.13;4782602;29;20066;-64
2022/01/29 03:11:28;;;;;;;286.45;157.77;;;;;;;10.11;100.00;99132.63;4761369;30;20403;-65
2022/01/29 03:14:22;;;;;;;304.73;157.80;;;;;;;10.20;100.00;99143.59;4781416;29;20761;-66
2022/01/29 03:16:57;;;;;;;284.33;161.05;;;;;;;10.29;100.00;99147.72;4764302;30;20063;-65
2022/01/29 03:19:54;;;;;;;299.13;160.53;;;;;;;10.55;100.00;99144.53;4767740;30;20085;-65
2022/01/29 03:22:30;;;;;;;285.05;160.13;;;;;;;10.77;100.00;99152.66;4770854;29;20295;-65
2022/01/29 03:25:19;;;;;;;291.07;158.87;;;;;;;11.15;100.00;99142.25;4781294;29;20158;-63
2022/01/29 03:28:01;;;;;;;294.45;162.40;;;;;;;11.74;100.00;99155.31;4781509;29;20063;-63
2022/01/29 03:30:58;;;;;;;265.25;153.05;;;;;;;12.09;100.00;99154.38;4780495;29;20077;-63
2022/01/29 03:33:34;;;;;;;267.20;149.00;;;;;;;12.56;100.00;99151.25;4774774;29;20162;-63
2022/01/29 03:36:29;;;;;;;262.07;149.67;;;;;;;12.91;100.00;99150.16;4779310;30;20051;-63
2022/01/29 03:39:04;;;;;;;250.85;144.13;;;;;;;13.23;100.00;99149.16;4778255;30;20059;-64
2022/01/29 03:41:55;;;;;;;263.77;148.70;;;;;;;13.51;100.00;99148.19;4777615;30;20059;-64
2022/01/29 03:44:38;;;;;;;251.52;141.70;;;;;;;13.81;100.00;99167.03;4779017;30;20089;-64
2022/01/29 03:47:32;;;;;;;249.88;144.98;;;;;;;14.21;100.00;99162.06;4776649;29;20050;-64
2022/01/29 03:50:09;;;;;;;260.58;146.52;;;;;;;14.48;100.00;99175.78;4759095;29;20062;-64
2022/01/29 03:52:57;;;;;;;247.30;141.10;;;;;;;14.83;100.00;99167.50;4772189;30;20143;-64
2022/01/29 03:55:38;;;;;;;230.90;132.77;;;;;;;15.14;100.00;99179.25;4768376;29;20051;-64
2022/01/29 03:58:28;;;;;;;209.30;124.28;;;;;;;15.35;100.00;99175.75;4772684;29;20081;-63
2022/01/29 04:01:11;;;;;;;227.52;119.45;;;;;;;15.64;100.00;99188.38;4774840;29;20144;-64
2022/01/29 04:04:00;;;;;;;194.35;115.22;;;;;;;15.91;100.00;99191.56;4776743;29;20059;-63
2022/01/29 04:06:42;;;;;;;193.63;115.10;;;;;;;16.18;100.00;99199.91;4777600;29;20163;-64
2022/01/29 04:09:30;;;;;;;191.60;110.40;;;;;;;16.60;100.00;99206.69;4772609;29;20057;-64
2022/01/29 04:12:14;;;;;;;;;;;;;;;16.80;100.00;99225.69;4774871;29;20055;-64
2022/01/29 04:15:04;;;;;;;178.07;106.18;;;;;;;17.15;100.00;99226.66;4773104;29;19929;-64
2022/01/29 04:17:48;;;;;;;200.00;108.88;;;;;;;17.06;96.81;99232.28;4772744;30;20055;-63
2022/01/29 04:20:37;;;;;;;180.63;105.55;;;;;;;17.25;90.35;99232.22;4776501;29;20066;-64
2022/01/29 04:23:19;;;;;;;183.75;107.30;;;;;;;17.31;91.14;99226.75;4774225;29;20065;-64
2022/01/29 04:26:15;;;;;;;192.10;102.32;;;;;;;17.95;83.17;99234.84;4773454;29;20062;-64
2022/01/29 04:28:51;;;;;;;179.88;101.93;;;;;;;17.72;78.45;99224.72;4777270;29;20136;-64
2022/01/29 04:32:10;;;;;;;196.32;105.45;;;;;;;17.82;84.16;99228.53;4762779;30;20658;-64
2022/01/29 04:34:46;;;;;;;184.07;106.22;;;;;;;18.11;79.85;99236.66;4760886;30;20059;-64
2022/01/29 04:37:40;;;;;;;182.77;107.63;;;;;;;18.09;77.84;99251.53;4773586;30;20072;-64
2022/01/29 04:40:16;;;;;;;185.32;106.18;;;;;;;18.21;75.92;99248.28;4751579;30;20056;-64
2022/01/29 04:43:05;;;;;;;168.40;97.50;;;;;;;18.25;71.18;99249.81;4779697;29;20656;-63
2022/01/29 04:45:48;;;;;;;176.43;103.68;;;;;;;18.20;72.64;99250.03;4776240;29;20338;-64
2022/01/29 04:48:37;;;;;;;175.90;98.30;;;;;;;18.60;72.82;99258.41;4779722;29;20074;-64
2022/01/29 04:51:26;;;;;;;170.13;95.72;;;;;;;18.39;72.34;99255.16;4769220;29;20059;-64
2022/01/29 04:54:08;;;;;;;175.57;98.53;;;;;;;18.45;74.60;99257.44;4777902;29;20162;-64
2022/01/29 04:56:56;;;;;;;168.23;97.68;;;;;;;18.87;70.04;99259.53;4776205;29;20067;-64
2022/01/29 04:59:39;;;;;;;183.18;99.13;;;;;;;18.63;68.35;99260.88;4777907;29;20066;-63
2022/01/29 05:02:27;;;;;;;178.77;103.13;;;;;;;18.83;67.21;99251.97;4777665;29;20795;-63
2022/01/29 05:05:12;;;;;;;188.63;106.32;;;;;;;18.40;68.54;99246.41;4774320;29;20142;-64
2022/01/29 05:08:07;;;;;;;183.35;106.03;;;;;;;18.67;70.75;99255.41;4767021;30;20055;-63
2022/01/29 05:10:42;;;;;;;189.00;102.70;;;;;;;18.81;65.95;99267.72;4763549;30;20138;-63
2022/01/29 05:13:40;;;;;;;177.97;98.37;;;;;;;18.62;69.06;99260.03;4775484;30;20672;-65
2022/01/29 05:28:19;;;;;;;106.90;62.05;;;;;;;18.87;66.73;99259.53;4764821;30;20065;-63
2022/01/29 05:31:14;;;;;;;118.65;63.20;;;;;;;18.89;64.85;99257.69;4779626;29;20055;-64
2022/01/29 05:33:50;;;;;;;126.22;67.03;;;;;;;19.00;64.64;99257.09;4776412;30;20058;-63
2022/01/29 05:36:48;;;;;;;122.57;66.22;;;;;;;19.03;65.99;99247.34;4778113;29;20059;-64
2022/01/29 05:39:26;;;;;;;109.78;58.72;;;;;;;19.20;64.75;99246.41;4779546;29;20146;-63
2022/01/29 05:42:21;;;;;;;111.90;58.78;;;;;;;19.24;63.57;99242.66;4783240;29;20059;-62
2022/01/29 05:44:56;;;;;;;105.43;58.03;;;;;;;19.28;63.75;99244.19;4776000;30;20059;-64
2022/01/29 05:47:52;;;;;;;130.48;66.15;;;;;;;19.26;65.21;99248.66;4781304;30;20047;-64
2022/01/29 05:50:27;;;;;;;152.15;70.47;;;;;;;19.39;62.96;99244.44;4778094;30;20051;-63
2022/01/29 05:53:17;;;;;;;134.00;65.43;;;;;;;20.01;61.44;99253.03;4771400;30;20062;-64
2022/01/29 05:55:59;;;;;;;130.50;66.80;;;;;;;19.88;58.94;99247.69;4771265;30;20899;-64
2022/01/29 05:58:54;;;;;;;122.13;62.33;;;;;;;19.84;61.95;99242.72;4768920;30;20396;-64
2022/01/29 06:01:36;;;;;;;127.15;62.88;;;;;;;19.99;63.23;99244.44;4776264;29;20147;-64
2022/01/29 06:04:26;;;;;;;127.10;64.18;;;;;;;19.78;61.15;99249.16;4777122;29;20071;-63
2022/01/29 06:07:09;;;;;;;137.50;65.07;;;;;;;19.75;60.50;99235.41;4777135;29;20128;-64
2022/01/29 06:09:58;;;;;;;118.53;62.70;;;;;;;19.75;61.12;99245.88;4773487;30;21059;-64
2022/01/29 06:13:01;;;;;;;100.85;55.40;;;;;;;19.77;62.43;99244.03;4773653;29;20344;-64
2022/01/29 06:15:53;;;;;;;121.07;61.58;;;;;;;19.71;57.96;99252.25;4777312;29;20071;-64
2022/01/29 06:18:35;;;;;;;132.13;63.60;;;;;;;19.97;59.82;99243.69;4779897;29;20065;-64
2022/01/29 06:21:24;;;;;;;129.82;63.80;;;;;;;20.01;59.59;99247.81;4774663;30;20094;-64
2022/01/29 06:24:07;;;;;;;126.38;67.10;;;;;;;19.93;61.76;99239.56;4755551;30;20130;-64
2022/01/29 06:26:56;;;;;;;137.65;68.00;;;;;;;20.36;60.98;99234.41;4773773;29;20051;-64
2022/01/29 06:29:51;;;;;;;122.00;66.85;;;;;;;20.02;57.37;99228.56;4773984;29;20059;-64
2022/01/29 06:32:26;;;;;;;123.45;63.17;;;;;;;20.09;61.72;99218.59;4774116;30;20059;-63
2022/01/29 06:35:13;;;;;;;116.85;65.22;;;;;;;20.10;60.63;99210.66;4773924;29;20043;-64
2022/01/29 06:38:02;;;;;;;123.78;65.70;;;;;;;20.29;60.00;99209.50;4771611;30;20054;-65
2022/01/29 06:40:44;;;;;;;109.57;59.47;;;;;;;20.14;58.92;99209.50;4773402;29;20066;-63
2022/01/29 06:43:32;;;;;;;105.05;55.45;;;;;;;19.93;61.03;99213.44;4770842;30;20134;-64
2022/01/29 06:46:14;;;;;;;115.65;62.08;;;;;;;20.44;62.74;99200.75;4775627;29;20558;-65
2022/01/29 06:49:03;;;;;;;90.75;47.95;;;;;;;19.80;57.36;99215.06;4773960;29;20842;-64
2022/01/29 06:51:44;;;;;;;97.60;54.20;;;;;;;20.14;57.77;99206.91;4774632;30;20081;-64
2022/01/29 06:54:35;;;;;;;96.20;52.00;;;;;;;19.93;57.86;99197.72;4775614;29;20889;-65
2022/01/29 06:57:17;;;;;;;90.88;49.90;;;;;;;20.01;60.96;99197.28;4777750;29;20092;-64
2022/01/29 07:00:09;;;;;;;92.15;50.63;;;;;;;19.83;61.67;99193.97;4754068;29;20116;-65
2022/01/29 07:02:57;;;;;;;91.65;50.53;;;;;;;19.70;59.48;99187.81;4775153;29;20079;-64
2022/01/29 07:05:48;;;;;;;89.88;52.85;;;;;;;19.85;64.10;99192.13;4777171;30;20127;-64
2022/01/29 07:08:30;;;;;;;91.40;52.67;;;;;;;19.94;61.35;99183.72;4774899;29;20055;-64
2022/01/29 07:11:21;;;;;;;91.47;53.05;;;;;;;19.70;60.28;99183.41;4774545;29;20124;-64
2022/01/29 07:14:04;;;;;;;94.47;52.17;;;;;;;19.59;60.93;99179.75;4773534;29;20059;-64
2022/01/29 07:16:53;;;;;;;87.15;51.50;;;;;;;19.56;60.71;99182.53;4776766;29;20063;-65
2022/01/29 07:19:35;;;;;;;97.82;50.70;;;;;;;19.65;60.94;99174.13;4773379;30;20063;-65
2022/01/29 07:22:24;;;;;;;86.80;49.25;;;;;;;19.37;58.37;99162.69;4778587;30;20377;-64
2022/01/29 07:25:06;;;;;;;86.57;50.20;;;;;;;19.72;60.59;99167.63;4777324;30;20534;-64
2022/01/29 07:27:55;;;;;;;90.18;50.92;;;;;;;19.68;60.71;99161.75;4775935;30;20055;-65
2022/01/29 07:30:43;;;;;;;89.40;51.47;;;;;;;19.81;61.32;99151.38;4764835;30;20428;-65
2022/01/29 07:33:39;;;;;;;92.22;51.13;;;;;;;19.60;60.48;99156.13;4774267;29;20051;-64
2022/01/29 07:36:14;;;;;;;83.43;46.58;;;;;;;19.62;57.37;99149.03;4770322;30;20142;-65
2022/01/29 07:39:10;;;;;;;85.72;46.25;;;;;;;19.85;58.53;99139.81;4774269;29;20069;-65
2022/01/29 07:41:46;;;;;;;87.47;46.83;;;;;;;19.73;58.54;99138.78;4777332;29;20447;-65
2022/01/29 07:44:36;;;;;;;72.40;38.75;;;;;;;19.86;59.14;99131.03;4762090;30;20060;-65
2022/01/29 07:47:18;;;;;;;74.40;38.25;;;;;;;19.77;55.58;99139.44;4774791;29;20054;-64
2022/01/29 07:50:02;;;;;;;70.88;36.72;;;;;;;19.89;56.90;99125.59;4757287;30;20059;-64
2022/01/29 07:52:50;;;;;;;74.60;37.90;;;;;;;19.91;56.35;99121.13;4773261;29;20124;-65
2022/01/29 07:55:40;;;;;;;71.35;37.92;;;;;;;19.93;57.19;99119.28;4773913;29;20059;-64
2022/01/29 07:58:22;;;;;;;57.85;32.47;;;;;;;19.94;54.21;99126.19;4767521;30;20519;-65
2022/01/29 08:01:11;;;;;;;62.95;35.47;;;;;;;20.00;57.97;99124.97;4760270;29;20152;-65
2022/01/29 08:04:01;;;;;;;63.22;35.17;;;;;;;19.90;57.14;99122.06;4778639;29;20053;-65
2022/01/29 08:06:45;;;;;;;56.83;32.67;;;;;;;19.86;56.39;99117.97;4772569;29;20190;-64
2022/01/29 08:09:40;;;;;;;67.18;35.35;;;;;;;20.03;57.48;99117.78;4762012;29;20137;-65
2022/01/29 08:12:15;;;;;;;56.50;33.95;;;;;;;19.89;56.77;99112.53;4759348;30;20066;-65
2022/01/29 08:15:05;;;;;;;54.08;32.90;;;;;;;19.85;58.54;99108.44;4774859;29;20066;-65
2022/01/29 08:17:47;;;;;;;59.53;34.28;;;;;;;19.76;57.41;99099.38;4767452;29;20051;-65
2022/01/29 08:20:30;;;;;;;58.53;34.20;;;;;;;19.92;57.18;99109.75;4778241;29;20575;-65
2022/01/29 08:23:19;;;;;;;61.42;34.08;;;;;;;19.75;58.06;99091.63;4775782;30;20062;-68
2022/01/29 08:26:01;;;;;;;58.40;32.38;;;;;;;19.65;57.56;99093.09;4774292;29;20051;-66
2022/01/29 08:28:50;;;;;;;53.83;33.67;;;;;;;19.70;60.49;99083.22;4771503;29;20054;-67
2022/01/29 08:31:32;;;;;;;56.28;32.13;;;;;;;19.63;58.08;99081.91;4774243;29;20083;-67
2022/01/29 08:34:21;;;;;;;52.50;31.00;;;;;;;19.59;55.84;99075.19;4777387;29;20084;-68
2022/01/29 08:37:11;;;;;;;52.67;30.63;;;;;;;19.69;55.86;99076.31;4777836;29;20463;-67
2022/01/29 08:39:53;;;;;;;49.85;30.77;;;;;;;19.46;56.78;99072.44;4777941;29;20070;-65
2022/01/29 08:42:42;;;;;;;56.10;31.95;;;;;;;19.66;60.62;99068.66;4764158;29;20051;-65
2022/01/29 08:45:24;;;;;;;66.47;34.17;;;;;;;19.62;57.80;99056.72;4779441;29;20051;-65
2022/01/29 08:48:15;;;;;;;61.40;32.97;;;;;;;19.77;57.33;99055.78;4778147;29;20086;-66
2022/01/29 08:51:04;;;;;;;70.53;32.65;;;;;;;19.68;55.71;99046.72;4771440;29;20055;-66
2022/01/29 08:53:46;;;;;;;56.28;29.27;;;;;;;19.78;55.67;99049.63;4772602;29;20118;-69
2022/01/29 08:56:41;;;;;;;49.90;30.55;;;;;;;19.68;57.07;99038.03;4775916;29;20059;-70
2022/01/29 08:59:16;;;;;;;61.55;32.50;;;;;;;19.72;57.04;99042.13;4769305;29;20055;-69
2022/01/29 09:02:13;;;;;;;47.72;30.55;;;;;;;19.53;57.45;99029.34;4758266;30;20047;-67
2022/01/29 09:04:48;;;;;;;54.40;31.25;;;;;;;19.48;57.13;99029.63;4774801;29;20401;-69
2022/01/29 09:07:38;;;;;;;47.47;28.80;;;;;;;19.47;56.57;99027.94;4777388;30;20074;-68
2022/01/29 09:10:20;;;;;;;52.40;29.13;;;;;;;19.53;56.32;99025.91;4769553;30;20086;-69
2022/01/29 09:13:10;;;;;;;48.22;27.83;;;;;;;19.43;57.41;99013.34;4768346;30;20059;-68
2022/01/29 09:15:52;;;;;;;50.83;30.50;;;;;;;19.35;58.35;99015.59;4769852;30;20051;-68
2022/01/29 09:18:47;;;;;;;50.92;30.23;;;;;;;19.37;57.80;99007.66;4771744;30;20070;-68
2022/01/29 09:21:36;;;;;;;52.60;32.35;;;;;;;19.28;58.69;99009.06;4777414;30;20500;-68
2022/01/29 09:24:18;;;;;;;47.75;29.58;;;;;;;19.17;58.17;99005.41;4776588;29;20086;-68
2022/01/29 09:27:00;;;;;;;58.40;30.73;;;;;;;19.21;56.82;99002.53;4771873;29;20071;-67
2022/01/29 09:29:50;;;;;;;48.65;31.02;;;;;;;19.28;59.75;99001.22;4773959;30;20059;-71
2022/01/29 09:32:33;;;;;;;50.95;30.60;;;;;;;19.35;56.31;99002.53;4772928;29;20422;-70
2022/01/29 09:35:29;;;;;;;49.38;29.88;;;;;;;19.39;55.83;99004.03;4422616;30;10000369;-68
2022/01/29 09:38:10;;;;;;;59.15;29.75;;;;;;;19.35;57.77;99002.53;4771769;29;20099;-68
2022/01/29 09:41:10;;;;;;;46.25;28.23;;;;;;;19.31;56.07;99008.88;4767591;29;20059;-69
2022/01/29 09:43:48;;;;;;;;;;;;;;;19.17;56.39;98998.41;4778096;29;20087;-68
2022/01/29 09:46:47;;;;;;;52.83;25.98;;;;;;;19.16;54.85;98991.50;4763020;29;20033;-68
2022/01/29 09:49:22;;;;;;;41.58;22.17;;;;;;;19.05;51.23;98993.94;4770686;30;20451;-69
2022/01/29 09:52:19;;;;;;;38.97;21.13;;;;;;;19.03;52.18;98987.94;4760748;29;20157;-67
2022/01/29 09:54:54;;;;;;;43.30;23.38;;;;;;;19.02;50.43;98984.50;4769485;30;20508;-70
2022/01/29 09:57:55;;;;;;;39.65;23.98;;;;;;;18.97;51.51;98983.09;4741458;30;20055;-68
2022/01/29 10:00:50;;;;;;;48.50;24.13;;;;;;;18.95;53.65;98977.97;4756807;30;20624;-67
2022/01/29 10:03:57;;;;;;;60.17;25.90;;;;;;;18.93;52.08;98982.44;4771168;29;20052;-70
2022/01/29 10:07:12;;;;;;;56.22;30.08;;;;;;;18.82;54.81;98978.78;4772888;29;20725;-68
2022/01/29 10:10:24;;;;;;;54.17;30.02;;;;;;;18.93;56.55;98971.97;4761105;30;20066;-70
2022/01/29 10:13:33;;;;;;;54.58;28.30;;;;;;;18.86;54.52;98969.81;4773701;29;20055;-68
2022/01/29 10:16:30;;;;;;;59.83;29.00;;;;;;;18.85;53.53;98965.53;4760377;29;20047;-66
2022/01/29 10:19:25;;;;;;;65.30;30.75;;;;;;;18.80;54.10;98970.19;4767444;29;20142;-66
2022/01/29 10:22:29;;;;;;;71.20;34.03;;;;;;;18.81;56.86;98954.44;4771115;30;20060;-68
2022/01/29 10:25:12;;;;;;;72.72;38.60;;;;;;;18.78;57.57;98949.41;4761607;29;20051;-68
2022/01/29 10:28:10;;;;;;;92.93;39.35;;;;;;;18.78;56.85;98959.84;4778655;29;20140;-68
2022/01/29 10:31:04;;;;;;;81.70;42.40;;;;;;;18.75;59.09;98953.97;4778822;29;20854;-66
2022/01/29 10:33:49;;;;;;;78.63;40.17;;;;;;;18.68;57.92;98945.63;4760631;29;20062;-66
2022/01/29 10:36:39;;;;;;;79.35;39.03;;;;;;;18.67;57.53;98941.38;4780597;29;20062;-65
2022/01/29 10:39:30;;;;;;;87.75;40.83;;;;;;;18.64;59.10;98946.75;4442355;29;10000637;-68
2022/01/29 10:42:36;;;;;;;68.55;35.65;;;;;;;18.61;58.07;98953.00;4776807;29;20055;-68
2022/01/29 10:45:36;;;;;;;76.40;38.17;;;;;;;18.67;60.62;98938.78;4760341;29;20047;-67
2022/01/29 10:48:49;;;;;;;68.70;37.97;;;;;;;18.64;59.93;98947.59;4772451;29;20058;-67
2022/01/29 10:51:41;;;;;;;78.00;41.05;;;;;;;18.49;61.62;98945.84;4773521;29;20052;-66
2022/01/29 10:54:33;;;;;;;85.63;45.50;;;;;;;18.43;60.77;98942.78;4773040;29;20085;-65
2022/01/29 10:57:17;;;;;;;85.40;45.25;;;;;;;18.44;62.62;98939.25;4774890;29;20058;-65
2022/01/29 11:00:12;;;;;;;88.93;43.53;;;;;;;18.31;62.26;98944.31;4758355;30;20701;-67
2022/01/29 11:03:02;;;;;;;77.07;44.60;;;;;;;18.24;64.29;98927.31;4774955;29;20079;-66
2022/01/29 11:05:56;;;;;;;82.25;44.00;;;;;;;18.13;64.82;98929.69;4775642;29;20070;-68
2022/01/29 11:08:41;;;;;;;80.35;42.92;;;;;;;18.06;64.44;98929.19;4759702;29;20051;-68
2022/01/29 11:11:36;;;;;;;81.55;41.35;;;;;;;18.04;64.43;98927.63;4772350;29;20063;-66
2022/01/29 11:14:20;;;;;;;76.88;40.78;;;;;;;17.97;65.99;98920.13;4772784;29;20059;-67
2022/01/29 11:17:22;;;;;;;80.68;42.00;;;;;;;17.88;65.90;98919.81;4772273;29;20061;-65
2022/01/29 11:20:12;;;;;;;76.55;41.22;;;;;;;17.84;65.69;98924.34;4771746;30;20409;-65
2022/01/29 11:22:55;;;;;;;85.28;41.00;;;;;;;17.79;66.37;98934.22;4771678;29;20086;-69
2022/01/29 11:25:47;;;;;;;80.57;40.08;;;;;;;17.74;66.75;98928.38;4773239;29;20080;-69
2022/01/29 11:28:36;;;;;;;79.30;40.42;;;;;;;17.73;69.39;98921.50;4759883;30;20059;-69
2022/01/29 11:31:20;;;;;;;72.80;40.50;;;;;;;17.72;70.03;98932.84;4768809;30;20056;-69
2022/01/29 11:34:09;;;;;;;75.43;39.42;;;;;;;17.62;69.74;98929.09;4770827;30;20660;-69
2022/01/29 11:37:10;;;;;;;71.43;39.50;;;;;;;17.50;70.84;98927.09;4778412;29;20074;-69
2022/01/29 11:40:20;;;;;;;72.27;37.97;;;;;;;17.48;70.71;98921.16;4779301;29;20086;-69
2022/01/29 11:43:18;;;;;;;73.18;40.38;;;;;;;17.39;71.12;98919.03;4444334;29;10000453;-68
2022/01/29 11:46:32;;;;;;;104.45;46.05;;;;;;;17.29;71.95;98918.69;4776700;29;20155;-71
2022/01/29 11:49:21;;;;;;;104.63;54.28;;;;;;;17.27;72.94;98917.06;4770051;29;20061;-70
2022/01/29 11:52:28;;;;;;;106.32;50.75;;;;;;;17.13;72.65;98918.66;4775615;29;20280;-68
2022/01/29 11:55:11;;;;;;;103.53;50.13;;;;;;;17.11;76.88;98910.06;4762673;30;20051;-69
2022/01/29 11:58:33;;;;;;;103.70;47.42;;;;;;;17.06;77.95;98917.31;4770423;30;20057;-69
2022/01/29 12:01:31;;;;;;;106.32;44.83;;;;;;;16.99;78.57;98912.50;4762439;30;20063;-69
2022/01/29 12:04:29;;;;;;;91.00;42.88;;;;;;;16.92;79.56;98917.16;4762647;30;20052;-69
2022/01/29 12:07:33;;;;;;;87.68;42.92;;;;;;;16.87;84.17;98908.75;4755886;29;20047;-69
2022/01/29 12:10:12;;;;;;;84.60;43.05;;;;;;;16.77;84.96;98911.00;4776119;29;20051;-69
2022/01/29 12:13:11;;;;;;;88.28;42.95;;;;;;;16.64;87.73;98909.09;4769411;29;20055;-68
2022/01/29 12:15:53;;;;;;;76.00;43.85;;;;;;;16.51;90.79;98900.22;4777276;30;20059;-68
2022/01/29 12:18:48;;;;;;;70.85;40.65;;;;;;;16.40;91.49;98899.00;4773595;29;20154;-69
2022/01/29 12:21:47;;;;;;;79.60;43.25;;;;;;;16.32;91.91;98889.88;4773760;29;20067;-69
2022/01/29 12:24:22;;;;;;;78.57;40.55;;;;;;;16.16;94.46;98897.59;4772532;29;20142;-68
2022/01/29 12:27:11;;;;;;;79.68;41.40;;;;;;;16.03;97.95;98896.53;4776908;29;20162;-67
2022/01/29 12:30:00;;;;;;;83.32;43.88;;;;;;;15.92;98.69;98893.59;4778491;29;20511;-66
2022/01/29 12:33:02;;;;;;;89.22;43.30;;;;;;;15.73;99.37;98898.81;4777851;29;20178;-68
2022/01/29 12:36:08;;;;;;;81.82;45.28;;;;;;;15.58;100.00;98896.94;4770514;30;20063;-66
2022/01/29 12:39:06;;;;;;;92.40;46.00;;;;;;;15.48;100.00;98906.91;4774455;29;20066;-68
2022/01/29 12:42:42;;;;;;;95.70;47.55;;;;;;;15.36;100.00;98904.88;4771673;30;20540;-67
2022/01/29 12:45:13;;;;;;;91.93;47.53;;;;;;;15.20;100.00;98912.50;4765523;29;20051;-65
2022/01/29 12:48:10;;;;;;;90.20;49.95;;;;;;;15.16;100.00;98910.13;4773614;30;20121;-67
2022/01/29 12:51:10;;;;;;;94.80;50.13;;;;;;;15.08;100.00;98917.41;4762362;30;20080;-69
2022/01/29 12:53:57;;;;;;;95.17;50.87;;;;;;;15.02;100.00;98922.84;4775563;29;20067;-67
2022/01/29 12:56:46;;;;;;;106.63;52.28;;;;;;;14.96;100.00;98925.72;4770511;30;20055;-65
2022/01/29 12:59:28;;;;;;;98.65;52.65;;;;;;;14.87;100.00;98927.81;4775147;29;20071;-66